Time;durP1;ratioP1;P1;durP2;ratioP2;P2;SDS_P1;SDS_P2;PMS_P1;PMS_P2;Temp;Humidity;BMP_temperature;BMP_pressure;BME280_temperature;BME280_humidity;BME280_pressure;Samples;Min_cycle;Max_cycle;Signal;HPM_P1;HPM_P2
2022/04/30 00:02:01;;;;;;;6.03;3.80;;;6.10;99.90;;;;;;5074700;28;20202;-40
2022/04/30 00:04:30;;;;;;;4.80;3.87;;;6.10;99.90;;;;;;5069814;28;20234;-44
2022/04/30 00:06:56;;;;;;;7.93;4.40;;;6.00;99.90;;;;;;5066214;28;20195;-42
2022/04/30 00:09:23;;;;;;;7.50;4.47;;;6.00;99.90;;;;;;5079714;28;20239;-46
2022/04/30 00:11:51;;;;;;;7.30;4.40;;;6.00;99.90;;;;;;5078963;28;20208;-42
2022/04/30 00:14:18;;;;;;;8.93;4.43;;;6.00;99.90;;;;;;5067417;28;20226;-41
2022/04/30 00:16:44;;;;;;;6.50;4.77;;;6.00;99.90;;;;;;5078963;28;20623;-41
2022/04/30 00:19:11;;;;;;;9.40;3.93;;;6.00;99.90;;;;;;5084491;28;20206;-40
2022/04/30 00:21:40;;;;;;;8.33;3.80;;;6.00;99.90;;;;;;5062052;28;20219;-40
2022/04/30 00:24:07;;;;;;;6.50;4.20;;;6.00;99.90;;;;;;5078343;28;20451;-41
2022/04/30 00:26:34;;;;;;;7.70;4.37;;;5.90;99.90;;;;;;5082246;28;20563;-40
2022/04/30 00:29:01;;;;;;;10.77;4.47;;;5.80;99.90;;;;;;5072480;28;20201;-41
2022/04/30 00:31:28;;;;;;;7.17;4.83;;;5.80;99.90;;;;;;5093375;28;20189;-41
2022/04/30 00:33:56;;;;;;;9.87;4.27;;;5.70;99.90;;;;;;5081402;28;20216;-42
2022/04/30 00:36:23;;;;;;;7.30;4.27;;;5.70;99.90;;;;;;5066057;28;20211;-42
2022/04/30 00:38:51;;;;;;;6.20;4.00;;;5.70;99.90;;;;;;5076682;28;20655;-40
2022/04/30 00:41:19;;;;;;;6.23;3.80;;;5.60;99.90;;;;;;5078683;28;20309;-43
2022/04/30 00:43:45;;;;;;;7.77;3.93;;;5.60;99.90;;;;;;5072450;28;20696;-42
2022/04/30 00:46:13;;;;;;;7.17;4.57;;;5.50;99.90;;;;;;5082616;28;20203;-42
2022/04/30 00:48:41;;;;;;;9.60;4.53;;;5.50;99.90;;;;;;5068824;28;20211;-42
2022/04/30 00:51:11;;;;;;;7.23;4.50;;;5.50;99.90;;;;;;5074431;28;20235;-41
2022/04/30 00:53:39;;;;;;;5.57;3.97;;;5.50;99.90;;;;;;5079683;28;20358;-40
2022/04/30 00:56:12;;;;;;;8.43;4.60;;;5.40;99.90;;;;;;5076019;28;20186;-42
2022/04/30 00:58:41;;;;;;;6.33;4.57;;;5.30;99.90;;;;;;5067926;28;20259;-41
2022/04/30 01:01:07;;;;;;;4.73;4.07;;;5.30;99.90;;;;;;5078860;28;20217;-40
2022/04/30 01:03:53;;;;;;;4.97;3.93;;;5.40;99.90;;;;;;5068979;28;20241;-41
2022/04/30 01:06:28;;;;;;;5.87;4.20;;;5.40;99.90;;;;;;5085696;28;20570;-40
2022/04/30 01:08:57;;;;;;;5.10;4.17;;;5.40;99.90;;;;;;5070515;28;20190;-43
2022/04/30 01:11:25;;;;;;;4.00;3.50;;;5.30;99.90;;;;;;5079442;28;20191;-41
2022/04/30 01:13:53;;;;;;;10.73;4.00;;;5.30;99.90;;;;;;5072739;28;20941;-41
2022/04/30 01:16:19;;;;;;;7.20;3.90;;;5.30;99.90;;;;;;5077960;28;20280;-40
2022/04/30 01:18:46;;;;;;;8.37;4.83;;;5.30;99.90;;;;;;5071786;28;20202;-40
2022/04/30 01:21:18;;;;;;;5.50;4.30;;;5.30;99.90;;;;;;5073868;28;20237;-40
2022/04/30 01:23:47;;;;;;;8.37;3.90;;;5.20;99.90;;;;;;5068456;28;20309;-40
2022/04/30 01:26:14;;;;;;;6.97;4.57;;;5.20;99.90;;;;;;5096490;28;20197;-41
2022/04/30 01:28:44;;;;;;;9.00;4.40;;;5.20;99.90;;;;;;5079405;28;20206;-40
2022/04/30 01:39:22;;;;;;;8.33;4.10;;;5.10;99.90;;;;;;5064997;28;20556;-41
2022/04/30 01:41:49;;;;;;;5.03;3.97;;;5.10;99.90;;;;;;5072269;28;20289;-40
2022/04/30 01:44:19;;;;;;;4.67;4.20;;;5.00;99.90;;;;;;5074549;28;20226;-42
2022/04/30 01:46:46;;;;;;;9.20;4.13;;;5.00;99.90;;;;;;5069590;28;20206;-40
2022/04/30 01:49:16;;;;;;;6.73;3.73;;;4.90;99.90;;;;;;5087830;28;20194;-41
2022/04/30 01:51:48;;;;;;;6.00;3.90;;;4.90;99.90;;;;;;5073701;28;20195;-40
2022/04/30 01:54:15;;;;;;;8.73;4.13;;;4.90;99.90;;;;;;5075953;28;20252;-41
2022/04/30 01:56:43;;;;;;;7.07;3.70;;;4.90;99.90;;;;;;5077740;28;20206;-43
2022/04/30 01:59:14;;;;;;;5.13;4.20;;;4.80;99.90;;;;;;5083007;28;20200;-41
2022/04/30 02:01:43;;;;;;;6.47;4.23;;;4.80;99.90;;;;;;5065450;28;20291;-41
2022/04/30 02:04:11;;;;;;;5.90;4.73;;;4.80;99.90;;;;;;5093825;28;20299;-40
2022/04/30 02:06:38;;;;;;;4.93;4.13;;;4.80;99.90;;;;;;5083011;28;20255;-40
2022/04/30 02:09:05;;;;;;;4.70;3.97;;;4.80;99.90;;;;;;5083389;28;20365;-40
2022/04/30 02:11:33;;;;;;;7.43;4.20;;;4.80;99.90;;;;;;5070150;28;20225;-40
2022/04/30 02:14:03;;;;;;;8.00;4.67;;;4.80;99.90;;;;;;5081436;28;20222;-40
2022/04/30 02:16:32;;;;;;;8.67;4.37;;;4.70;99.90;;;;;;5078648;28;20198;-40
2022/04/30 02:19:01;;;;;;;7.50;3.80;;;4.70;99.90;;;;;;5088715;28;20196;-40
2022/04/30 02:21:30;;;;;;;5.03;3.80;;;4.70;99.90;;;;;;5071953;28;20214;-42
2022/04/30 02:23:58;;;;;;;9.20;4.60;;;4.70;99.90;;;;;;5074031;28;20296;-40
2022/04/30 02:26:27;;;;;;;6.63;4.13;;;4.60;99.90;;;;;;5083333;28;20297;-40
2022/04/30 02:28:56;;;;;;;4.47;4.07;;;4.60;99.90;;;;;;5075242;28;20295;-40
2022/04/30 02:31:26;;;;;;;7.30;4.53;;;4.60;99.90;;;;;;5070908;28;20594;-41
2022/04/30 02:33:55;;;;;;;6.60;4.33;;;4.60;99.90;;;;;;5073227;28;20348;-40
2022/04/30 02:36:25;;;;;;;7.90;5.17;;;4.60;99.90;;;;;;5069879;28;20202;-40
2022/04/30 02:38:53;;;;;;;4.83;4.30;;;4.60;99.90;;;;;;5072245;28;20187;-41
2022/04/30 02:41:21;;;;;;;6.90;4.60;;;4.60;99.90;;;;;;5081128;28;20214;-40
2022/04/30 02:43:48;;;;;;;6.10;4.20;;;4.50;99.90;;;;;;5070903;28;20750;-40
2022/04/30 02:46:15;;;;;;;7.97;4.67;;;4.50;99.90;;;;;;5066306;28;20644;-40
2022/04/30 02:48:44;;;;;;;7.07;4.17;;;4.50;99.90;;;;;;5066214;28;20684;-40
2022/04/30 02:51:11;;;;;;;5.07;4.40;;;4.40;99.90;;;;;;5077587;28;20205;-40
2022/04/30 02:53:39;;;;;;;8.17;4.17;;;4.40;99.90;;;;;;5081728;28;20254;-40
2022/04/30 02:56:06;;;;;;;5.63;4.63;;;4.40;99.90;;;;;;5075453;28;20198;-41
2022/04/30 03:01:19;;;;;;;8.03;4.70;;;4.30;99.90;;;;;;5069371;28;20211;-40
2022/04/30 03:04:04;;;;;;;9.60;4.87;;;4.30;99.90;;;;;;5075610;28;20243;-40
2022/04/30 03:06:33;;;;;;;6.73;4.90;;;4.30;99.90;;;;;;5083682;28;20561;-40
2022/04/30 03:09:00;;;;;;;9.90;4.50;;;4.30;99.90;;;;;;5067622;28;20205;-42
2022/04/30 03:11:27;;;;;;;6.47;4.70;;;4.20;99.90;;;;;;5066824;28;20534;-42
2022/04/30 03:13:54;;;;;;;8.87;4.40;;;4.20;99.90;;;;;;5081313;27;20213;-40
2022/04/30 03:21:51;;;;;;;6.97;4.73;;;4.20;99.90;;;;;;5068753;28;20209;-40
2022/04/30 03:24:19;;;;;;;5.53;4.40;;;4.10;99.90;;;;;;5093476;28;20698;-42
2022/04/30 03:26:47;;;;;;;5.27;4.50;;;4.10;99.90;;;;;;5073834;28;20243;-41
2022/04/30 03:29:15;;;;;;;7.03;4.80;;;4.10;99.90;;;;;;5066719;28;20206;-40
2022/04/30 03:31:42;;;;;;;7.67;4.90;;;4.10;99.90;;;;;;5077359;28;20198;-40
2022/04/30 03:34:12;;;;;;;6.20;4.47;;;4.10;99.90;;;;;;5084628;28;20214;-40
2022/04/30 03:36:39;;;;;;;8.40;4.80;;;4.10;99.90;;;;;;5058896;28;20195;-40
2022/04/30 03:39:07;;;;;;;6.57;5.03;;;4.10;99.90;;;;;;5081930;28;20280;-40
2022/04/30 03:41:33;;;;;;;8.50;4.83;;;4.10;99.90;;;;;;5069859;28;20600;-44
2022/04/30 03:44:01;;;;;;;9.23;5.23;;;4.10;99.90;;;;;;5080632;28;20273;-40
2022/04/30 03:46:28;;;;;;;6.17;4.70;;;4.10;99.90;;;;;;5075641;28;20701;-40
2022/04/30 03:48:56;;;;;;;7.73;4.90;;;4.10;99.90;;;;;;5073314;28;20250;-42
2022/04/30 03:51:25;;;;;;;8.03;4.53;;;4.10;99.90;;;;;;5057805;28;20278;-41
2022/04/30 03:53:53;;;;;;;6.23;5.63;;;4.10;99.90;;;;;;5074500;28;20221;-40
2022/04/30 03:56:21;;;;;;;8.77;5.03;;;4.10;99.90;;;;;;5074797;28;20198;-40
2022/04/30 03:58:49;;;;;;;6.83;5.23;;;4.10;99.90;;;;;;5082458;28;20190;-43
2022/04/30 04:01:18;;;;;;;6.17;5.10;;;4.10;99.90;;;;;;5068742;28;20213;-40
2022/04/30 04:03:45;;;;;;;8.73;5.57;;;4.10;99.90;;;;;;5063813;28;20299;-41
2022/04/30 04:06:15;;;;;;;12.57;5.73;;;4.10;99.90;;;;;;5070361;28;20208;-40
2022/04/30 04:08:44;;;;;;;8.70;4.90;;;4.10;99.90;;;;;;5072646;28;21314;-41
2022/04/30 04:11:13;;;;;;;8.77;5.40;;;4.10;99.90;;;;;;5082338;28;20272;-41
2022/04/30 04:19:09;;;;;;;7.20;5.03;;;4.10;99.90;;;;;;5077675;28;20236;-40
2022/04/30 04:21:36;;;;;;;6.07;5.37;;;4.10;99.90;;;;;;5078336;28;20698;-40
2022/04/30 04:26:50;;;;;;;8.07;4.33;;;4.10;99.90;;;;;;5089324;28;20204;-40
2022/04/30 04:29:17;;;;;;;7.67;4.57;;;4.10;99.90;;;;;;5074545;28;21057;-40
2022/04/30 04:31:46;;;;;;;9.53;5.23;;;4.30;99.90;;;;;;5064876;28;20198;-41
2022/04/30 04:34:12;;;;;;;8.87;5.07;;;4.40;99.90;;;;;;5068238;28;20213;-44
2022/04/30 04:36:40;;;;;;;7.83;4.43;;;4.40;99.90;;;;;;5062852;28;20585;-45
2022/04/30 04:39:11;;;;;;;11.77;4.90;;;4.50;99.90;;;;;;5089929;28;20201;-40
2022/04/30 04:41:39;;;;;;;5.47;4.57;;;4.50;99.90;;;;;;5068265;28;20289;-42
2022/04/30 04:44:05;;;;;;;8.40;5.30;;;4.50;99.90;;;;;;5077590;28;20256;-44
2022/04/30 04:46:33;;;;;;;6.00;5.00;;;4.60;99.90;;;;;;5081935;28;20682;-41
2022/04/30 04:49:00;;;;;;;8.87;4.87;;;4.60;99.90;;;;;;5078840;28;20689;-43
2022/04/30 04:51:28;;;;;;;6.93;5.10;;;4.70;99.90;;;;;;5066908;28;20198;-40
2022/04/30 04:53:56;;;;;;;6.13;5.07;;;4.70;99.90;;;;;;5076938;28;20226;-40
2022/04/30 04:56:24;;;;;;;12.47;5.43;;;4.80;99.90;;;;;;5073420;28;20617;-40
2022/04/30 04:58:50;;;;;;;7.47;5.23;;;4.80;99.90;;;;;;5083730;28;20197;-41
2022/04/30 05:01:17;;;;;;;7.53;4.60;;;4.90;99.90;;;;;;5071191;28;20208;-40
2022/04/30 05:03:45;;;;;;;8.13;4.83;;;4.90;99.90;;;;;;5074145;28;21372;-40
2022/04/30 05:06:12;;;;;;;10.17;5.00;;;5.00;99.90;;;;;;5068628;28;20198;-43
2022/04/30 05:08:39;;;;;;;11.73;5.27;;;5.00;99.90;;;;;;5063776;28;20206;-46
2022/04/30 05:11:06;;;;;;;8.47;4.80;;;5.00;99.90;;;;;;5086422;28;20206;-42
2022/04/30 05:13:34;;;;;;;6.63;4.13;;;5.10;99.90;;;;;;5068315;28;20278;-40
2022/04/30 05:16:02;;;;;;;7.67;4.47;;;5.10;99.90;;;;;;5080128;28;20534;-44
2022/04/30 05:18:28;;;;;;;4.63;4.13;;;5.10;99.90;;;;;;5067453;28;20263;-40
2022/04/30 05:20:55;;;;;;;8.73;4.00;;;5.20;99.90;;;;;;5076210;28;20193;-40
2022/04/30 05:23:22;;;;;;;5.87;4.30;;;5.20;99.90;;;;;;5071795;28;20736;-40
2022/04/30 05:25:48;;;;;;;7.37;4.27;;;5.30;99.90;;;;;;5067500;28;20209;-40
2022/04/30 05:28:15;;;;;;;6.60;4.53;;;5.30;99.90;;;;;;5076112;28;20198;-40
2022/04/30 05:30:43;;;;;;;7.07;4.97;;;5.30;99.90;;;;;;5071454;28;20194;-42
2022/04/30 05:33:10;;;;;;;6.03;4.33;;;5.30;99.90;;;;;;5070668;28;20611;-39
2022/04/30 05:35:37;;;;;;;5.67;4.10;;;5.40;99.90;;;;;;5074339;28;20194;-40
2022/04/30 05:38:04;;;;;;;6.30;3.87;;;5.50;99.90;;;;;;5068935;28;20658;-40
2022/04/30 05:40:31;;;;;;;10.03;4.17;;;5.50;99.90;;;;;;5065008;28;20275;-40
2022/04/30 05:42:57;;;;;;;5.00;3.90;;;5.60;99.90;;;;;;5079237;28;20225;-40
2022/04/30 05:45:24;;;;;;;7.17;4.13;;;5.60;99.90;;;;;;5078862;28;20208;-39
2022/04/30 05:47:53;;;;;;;5.63;4.13;;;5.70;99.90;;;;;;5072762;28;20199;-41
2022/04/30 05:50:19;;;;;;;9.00;4.47;;;5.70;99.90;;;;;;5056617;28;20203;-39
2022/04/30 05:52:46;;;;;;;5.03;3.63;;;5.70;99.90;;;;;;5073845;28;20248;-40
2022/04/30 05:55:13;;;;;;;5.50;3.87;;;5.80;99.90;;;;;;5062877;28;20276;-39
2022/04/30 05:57:41;;;;;;;3.83;3.43;;;5.90;99.90;;;;;;5075948;28;20202;-39
2022/04/30 06:00:10;;;;;;;4.70;3.60;;;6.00;99.90;;;;;;5068062;28;20230;-41
2022/04/30 06:02:36;;;;;;;5.73;3.90;;;6.00;99.90;;;;;;5068266;28;20215;-40
2022/04/30 06:05:06;;;;;;;8.37;3.13;;;6.10;99.90;;;;;;5068150;28;20210;-40
2022/04/30 06:07:32;;;;;;;4.50;3.60;;;6.20;99.90;;;;;;5069308;28;20230;-41
2022/04/30 06:09:59;;;;;;;6.57;4.43;;;6.20;99.90;;;;;;5065557;28;20289;-41
2022/04/30 06:12:26;;;;;;;3.73;3.37;;;6.30;99.90;;;;;;5065907;28;20205;-42
2022/04/30 06:14:52;;;;;;;5.93;3.73;;;6.40;99.90;;;;;;5089274;28;20208;-40
2022/04/30 06:17:20;;;;;;;8.03;3.80;;;6.50;99.90;;;;;;5066523;28;20187;-38
2022/04/30 06:19:47;;;;;;;6.93;4.00;;;6.60;99.90;;;;;;5078276;28;20221;-38
2022/04/30 06:22:16;;;;;;;6.33;3.33;;;6.70;99.90;;;;;;5066491;28;20214;-37
2022/04/30 06:24:43;;;;;;;5.93;3.77;;;6.80;99.90;;;;;;5074590;28;20206;-37
2022/04/30 06:27:09;;;;;;;8.43;3.60;;;6.90;99.90;;;;;;5073757;28;20199;-37
2022/04/30 06:29:36;;;;;;;5.93;3.07;;;7.00;99.90;;;;;;5073873;28;20202;-37
2022/04/30 06:32:04;;;;;;;6.97;3.63;;;7.10;99.90;;;;;;5067759;28;20213;-36
2022/04/30 06:34:32;;;;;;;5.40;3.40;;;7.20;99.90;;;;;;5066440;28;20962;-36
2022/04/30 06:36:58;;;;;;;6.40;3.43;;;7.30;99.90;;;;;;5066316;28;20248;-37
2022/04/30 06:39:27;;;;;;;5.57;3.13;;;7.40;99.90;;;;;;5074955;28;20947;-37
2022/04/30 06:41:53;;;;;;;5.13;3.53;;;7.40;99.90;;;;;;5073308;28;20205;-36
2022/04/30 06:44:20;;;;;;;5.57;3.53;;;7.50;99.90;;;;;;5064670;28;20221;-36
2022/04/30 06:46:46;;;;;;;4.57;2.77;;;7.60;99.90;;;;;;5078096;28;20221;-37
2022/04/30 06:49:13;;;;;;;3.97;3.30;;;7.80;99.90;;;;;;5067413;28;20193;-36
2022/04/30 06:51:40;;;;;;;4.93;3.17;;;7.80;99.90;;;;;;5068990;28;20210;-35
2022/04/30 06:57:08;;;;;;;4.00;3.17;;;8.00;99.90;;;;;;5079154;28;20202;-36
2022/04/30 06:59:37;;;;;;;4.63;3.23;;;8.10;99.90;;;;;;5064870;28;20255;-36
2022/04/30 07:02:06;;;;;;;10.73;3.03;;;8.20;99.90;;;;;;5075775;28;20612;-36
2022/04/30 07:04:33;;;;;;;5.47;3.17;;;8.30;99.90;;;;;;5068695;28;20305;-36
2022/04/30 07:07:01;;;;;;;3.70;2.83;;;8.30;99.90;;;;;;5057711;28;20803;-36
2022/04/30 07:09:32;;;;;;;2.97;2.77;;;8.30;99.90;;;;;;5090659;28;20233;-36
2022/04/30 07:12:01;;;;;;;4.20;3.20;;;8.40;99.90;;;;;;5064053;28;20206;-36
2022/04/30 07:14:28;;;;;;;5.53;2.90;;;8.50;99.90;;;;;;5073175;28;20210;-36
2022/04/30 07:16:54;;;;;;;4.13;2.90;;;8.50;99.90;;;;;;5060524;28;20204;-36
2022/04/30 07:19:21;;;;;;;5.90;2.67;;;8.70;99.90;;;;;;5080658;28;20885;-37
2022/04/30 07:21:48;;;;;;;6.17;2.83;;;8.80;99.90;;;;;;5072412;28;20201;-36
2022/04/30 07:24:15;;;;;;;5.20;2.50;;;8.90;99.90;;;;;;5076786;28;20210;-36
2022/04/30 07:26:42;;;;;;;2.80;2.47;;;9.00;99.90;;;;;;5070341;28;20296;-37
2022/04/30 07:29:10;;;;;;;4.27;3.23;;;9.10;99.90;;;;;;5077346;28;20205;-38
2022/04/30 07:31:38;;;;;;;4.07;2.33;;;9.20;99.90;;;;;;5065650;28;20226;-37
2022/04/30 07:34:05;;;;;;;2.50;2.30;;;9.30;99.90;;;;;;5066989;28;20213;-37
2022/04/30 07:36:32;;;;;;;3.67;2.57;;;9.30;99.90;;;;;;5069077;28;20233;-37
2022/04/30 07:38:59;;;;;;;6.03;2.20;;;9.40;99.90;;;;;;5067937;28;20825;-37
2022/04/30 07:41:26;;;;;;;2.97;2.37;;;9.50;99.90;;;;;;5073247;28;20705;-37
2022/04/30 07:43:55;;;;;;;3.00;2.20;;;9.60;99.90;;;;;;5069937;28;20710;-38
2022/04/30 07:46:23;;;;;;;4.00;2.43;;;9.60;99.90;;;;;;5074105;28;20236;-38
2022/04/30 07:48:51;;;;;;;3.20;2.80;;;9.70;99.90;;;;;;5072942;27;20530;-36
2022/04/30 07:51:33;;;;;;;2.67;2.47;;;9.80;99.90;;;;;;5066310;28;20212;-37
2022/04/30 07:54:01;;;;;;;4.60;2.77;;;10.10;99.90;;;;;;5084850;28;20951;-39
2022/04/30 07:56:28;;;;;;;5.37;2.47;;;10.20;99.90;;;;;;5082192;28;20273;-38
2022/04/30 07:58:55;;;;;;;5.23;2.67;;;10.30;99.90;;;;;;5067654;28;20194;-38
2022/04/30 08:01:23;;;;;;;3.67;2.70;;;10.40;99.90;;;;;;5075813;28;20197;-38
2022/04/30 08:03:50;;;;;;;3.33;2.67;;;10.50;99.90;;;;;;5071076;28;20225;-37
2022/04/30 08:06:17;;;;;;;2.30;2.10;;;10.60;99.90;;;;;;5078665;28;20208;-37
2022/04/30 08:08:45;;;;;;;6.20;2.87;;;10.70;99.90;;;;;;5065801;28;20287;-36
2022/04/30 08:11:12;;;;;;;3.87;2.30;;;9.30;99.90;;;;;;5066808;28;20206;-37
2022/04/30 08:13:39;;;;;;;3.50;2.40;;;11.00;99.90;;;;;;5083822;28;20226;-37
2022/04/30 08:16:09;;;;;;;4.10;2.40;;;11.00;99.90;;;;;;5069879;28;20893;-37
2022/04/30 08:18:38;;;;;;;4.47;2.10;;;11.20;99.90;;;;;;5066905;28;20642;-36
2022/04/30 08:21:06;;;;;;;4.50;2.20;;;11.40;99.90;;;;;;5067038;28;20193;-37
2022/04/30 08:23:34;;;;;;;2.17;2.00;;;11.40;99.90;;;;;;5074516;28;20697;-38
2022/04/30 08:26:01;;;;;;;3.67;1.83;;;11.50;99.90;;;;;;5075214;28;20203;-37
2022/04/30 08:28:28;;;;;;;3.23;1.93;;;11.50;99.90;;;;;;5079458;28;20202;-38
2022/04/30 08:30:55;;;;;;;2.03;1.73;;;;;;;;;;5061829;28;20195;-38
2022/04/30 08:33:22;;;;;;;3.23;1.97;;;11.60;99.90;;;;;;5068095;28;20221;-37
2022/04/30 08:35:50;;;;;;;2.23;1.83;;;11.90;99.90;;;;;;5077578;28;20202;-37
2022/04/30 08:38:17;;;;;;;2.33;1.30;;;11.90;99.90;;;;;;5069743;28;20208;-39
2022/04/30 08:40:44;;;;;;;4.63;1.60;;;12.00;99.90;;;;;;5064177;28;20202;-36
2022/04/30 08:43:13;;;;;;;2.10;1.20;;;12.10;99.90;;;;;;5069509;28;20217;-37
2022/04/30 08:45:41;;;;;;;2.90;1.50;;;12.30;99.90;;;;;;5074373;28;20552;-38
2022/04/30 08:48:10;;;;;;;3.10;1.50;;;12.30;99.90;;;;;;5067867;28;20199;-37
2022/04/30 08:50:38;;;;;;;1.70;1.60;;;12.20;99.90;;;;;;5073360;28;20206;-38
2022/04/30 08:53:07;;;;;;;1.93;1.43;;;12.20;99.90;;;;;;5070720;28;20210;-38
2022/04/30 08:55:34;;;;;;;6.53;1.80;;;12.20;99.90;;;;;;5065744;28;20578;-37
2022/04/30 08:58:02;;;;;;;2.90;1.80;;;12.30;99.90;;;;;;5068795;28;20206;-37
2022/04/30 09:00:29;;;;;;;1.97;1.60;;;12.40;99.90;;;;;;5067064;28;20871;-38
2022/04/30 09:02:57;;;;;;;1.20;1.10;;;12.60;99.90;;;;;;5073563;28;22399;-37
2022/04/30 09:05:30;;;;;;;5.70;1.30;;;12.50;99.90;;;;;;5066743;28;20203;-37
2022/04/30 09:07:59;;;;;;;1.60;1.50;;;12.40;99.90;;;;;;5059070;28;20225;-36
2022/04/30 09:10:29;;;;;;;6.50;1.70;;;12.50;99.90;;;;;;5059912;28;20209;-37
2022/04/30 09:13:05;;;;;;;4.97;1.53;;;12.60;99.90;;;;;;5063830;28;20268;-36
2022/04/30 09:15:33;;;;;;;3.17;1.67;;;12.70;99.90;;;;;;5072455;28;20186;-36
2022/04/30 09:18:01;;;;;;;2.20;1.53;;;12.70;99.90;;;;;;5072551;28;20191;-37
2022/04/30 09:20:29;;;;;;;4.00;1.60;;;12.60;99.90;;;;;;5069586;28;20203;-37
2022/04/30 09:22:57;;;;;;;2.50;1.53;;;12.50;99.90;;;;;;5065568;28;20365;-37
2022/04/30 09:25:24;;;;;;;6.23;1.57;;;12.60;99.90;;;;;;5063442;28;20314;-36
2022/04/30 09:27:53;;;;;;;2.87;1.80;;;12.70;99.20;;;;;;5067016;28;20205;-38
2022/04/30 09:30:20;;;;;;;3.27;1.87;;;12.70;99.40;;;;;;5076668;28;20214;-38
2022/04/30 09:32:58;;;;;;;1.77;1.67;;;12.60;99.80;;;;;;5070906;28;20218;-38
2022/04/30 09:38:10;;;;;;;2.20;1.67;;;12.60;99.70;;;;;;5072492;28;20182;-38
2022/04/30 09:40:37;;;;;;;4.90;2.30;;;12.70;99.10;;;;;;5054013;28;20761;-37
2022/04/30 09:43:15;;;;;;;2.57;2.17;;;12.70;99.40;;;;;;5076590;28;20229;-38
2022/04/30 09:45:42;;;;;;;3.87;2.57;;;12.70;99.90;;;;;;5060572;28;20202;-37
2022/04/30 09:56:33;;;;;;;3.00;2.60;;;12.90;99.90;;;;;;5063256;28;20210;-38
2022/04/30 09:59:04;;;;;;;4.50;3.00;;;13.00;99.90;;;;;;5062684;28;20265;-37
2022/04/30 10:01:34;;;;;;;3.73;2.73;;;12.90;99.90;;;;;;5077590;28;20229;-38
2022/04/30 10:04:05;;;;;;;3.37;2.87;;;13.10;99.90;;;;;;5057079;28;20219;-38
2022/04/30 10:06:33;;;;;;;4.00;2.93;;;13.10;99.90;;;;;;5067804;28;20255;-36
2022/04/30 10:09:01;;;;;;;3.57;2.67;;;13.00;99.90;;;;;;5069768;28;20251;-36
2022/04/30 10:11:34;;;;;;;2.93;2.17;;;13.10;99.90;;;;;;5069746;28;20288;-40
2022/04/30 10:14:17;;;;;;;3.87;3.00;;;13.30;99.90;;;;;;5069447;28;20271;-42
2022/04/30 10:17:09;;;;;;;3.40;2.70;;;13.40;99.10;;;;;;5066481;28;20212;-41
2022/04/30 10:19:33;;;;;;;4.37;2.30;;;13.30;98.90;;;;;;5075010;28;20202;-38
2022/04/30 10:22:13;;;;;;;2.90;2.20;;;13.30;98.50;;;;;;5066499;28;20202;-38
2022/04/30 10:24:47;;;;;;;3.43;2.20;;;13.20;97.60;;;;;;5073155;28;20576;-38
2022/04/30 10:27:14;;;;;;;6.57;2.67;;;13.10;98.00;;;;;;5063436;28;20189;-38
2022/04/30 10:29:54;;;;;;;3.50;2.43;;;13.10;98.30;;;;;;5072983;28;20206;-38
2022/04/30 10:32:29;;;;;;;3.03;2.40;;;13.20;97.70;;;;;;5068729;28;20206;-39
2022/04/30 10:34:56;;;;;;;6.13;2.27;;;13.40;97.10;;;;;;5059892;28;20205;-40
2022/04/30 10:37:30;;;;;;;2.70;2.50;;;13.50;96.70;;;;;;5066492;28;20221;-38
2022/04/30 10:39:59;;;;;;;4.40;2.73;;;13.40;96.20;;;;;;5071116;28;20186;-38
2022/04/30 10:42:30;;;;;;;3.73;2.03;;;13.50;95.60;;;;;;5060869;28;20209;-38
2022/04/30 10:44:58;;;;;;;3.97;2.60;;;13.60;95.60;;;;;;5075238;28;20966;-38
2022/04/30 10:47:25;;;;;;;2.50;2.30;;;13.60;95.70;;;;;;5070616;28;20225;-39
2022/04/30 10:49:53;;;;;;;9.97;2.50;;;13.50;95.20;;;;;;5061122;28;20207;-38
2022/04/30 10:52:24;;;;;;;4.73;3.00;;;13.50;95.60;;;;;;5068247;28;20193;-39
2022/04/30 10:54:54;;;;;;;4.13;2.57;;;13.50;95.50;;;;;;5069887;28;20191;-38
2022/04/30 10:57:22;;;;;;;3.60;3.00;;;13.50;95.70;;;;;;5068726;28;20609;-39
2022/04/30 11:00:02;;;;;;;6.70;3.30;;;13.60;95.80;;;;;;5065051;28;20251;-38
2022/04/30 11:02:33;;;;;;;3.27;2.50;;;14.00;95.00;;;;;;5076755;28;20634;-39
2022/04/30 11:05:01;;;;;;;4.57;2.37;;;14.10;95.30;;;;;;5069384;28;20405;-38
2022/04/30 11:07:30;;;;;;;3.17;2.20;;;14.20;94.60;;;;;;5067444;28;20273;-38
2022/04/30 11:09:58;;;;;;;2.83;2.13;;;13.90;93.60;;;;;;5080156;28;20203;-37
2022/04/30 11:12:30;;;;;;;5.43;2.00;;;13.80;93.80;;;;;;5074289;28;20194;-38
2022/04/30 11:14:59;;;;;;;3.73;2.13;;;13.80;93.30;;;;;;5059832;28;20203;-38
2022/04/30 11:17:27;;;;;;;2.07;1.87;;;13.80;92.90;;;;;;5064749;28;20202;-38
2022/04/30 11:19:55;;;;;;;3.07;2.30;;;13.90;92.90;;;;;;5073154;28;20627;-38
2022/04/30 11:22:22;;;;;;;3.43;2.10;;;14.00;93.10;;;;;;5068614;28;20207;-38
2022/04/30 11:24:49;;;;;;;3.80;2.13;;;14.00;92.80;;;;;;5062046;28;20218;-39
2022/04/30 11:27:16;;;;;;;3.00;2.30;;;14.00;93.20;;;;;;5078079;28;20225;-41
2022/04/30 11:29:50;;;;;;;2.43;2.20;;;14.10;93.10;;;;;;5068746;28;20217;-42
2022/04/30 11:32:22;;;;;;;3.60;2.00;;;;;;;;;;5071418;28;20286;-39
2022/04/30 11:34:49;;;;;;;2.10;1.90;;;;;;;;;;5060979;28;20198;-39
2022/04/30 11:37:16;;;;;;;2.43;1.97;;;14.50;91.00;;;;;;5066978;28;20592;-38
2022/04/30 11:39:43;;;;;;;2.30;1.90;;;14.50;92.30;;;;;;5057470;28;20198;-38
2022/04/30 11:42:11;;;;;;;2.53;1.87;;;14.40;92.00;;;;;;5074785;28;20667;-37
2022/04/30 11:44:37;;;;;;;2.57;1.90;;;14.30;93.40;;;;;;5058322;28;20686;-38
2022/04/30 11:47:07;;;;;;;6.27;2.00;;;14.30;93.50;;;;;;5073067;28;20269;-38
2022/04/30 11:49:35;;;;;;;2.60;1.73;;;14.50;99.90;;;;;;5067661;28;20272;-38
2022/04/30 11:52:04;;;;;;;2.60;1.80;;;14.60;90.60;;;;;;5066519;28;20214;-39
2022/04/30 11:54:31;;;;;;;3.27;1.87;;;14.70;88.30;;;;;;5057878;28;20832;-39
2022/04/30 11:56:59;;;;;;;2.70;1.80;;;14.70;87.50;;;;;;5068953;28;20197;-38
2022/04/30 11:59:30;;;;;;;2.40;1.67;;;14.60;86.70;;;;;;5056672;28;20217;-37
2022/04/30 12:02:01;;;;;;;3.07;1.77;;;14.60;84.80;;;;;;5069236;28;20194;-37
2022/04/30 12:04:32;;;;;;;2.50;1.90;;;14.60;85.30;;;;;;5065827;28;20309;-41
2022/04/30 12:07:02;;;;;;;2.33;1.90;;;14.60;84.70;;;;;;5073490;28;20219;-40
2022/04/30 12:09:31;;;;;;;2.00;1.90;;;14.60;86.00;;;;;;5058060;28;21522;-37
2022/04/30 12:12:00;;;;;;;2.07;1.73;;;14.60;85.80;;;;;;5069892;28;20206;-38
2022/04/30 12:14:28;;;;;;;2.53;1.73;;;14.60;85.90;;;;;;5073539;28;20217;-37
2022/04/30 12:16:57;;;;;;;2.43;2.23;;;14.70;84.80;;;;;;5069722;28;20198;-37
2022/04/30 12:25:05;;;;;;;2.33;1.40;;;14.40;83.00;;;;;;5057846;28;20306;-37
2022/04/30 12:27:32;;;;;;;2.90;1.70;;;14.40;84.10;;;;;;5076022;28;20243;-37
2022/04/30 12:30:09;;;;;;;3.47;1.70;;;14.50;83.30;;;;;;5071962;28;20475;-37
2022/04/30 12:32:47;;;;;;;3.47;1.47;;;14.60;82.60;;;;;;5061813;28;20375;-37
2022/04/30 12:35:15;;;;;;;1.97;1.50;;;14.60;82.00;;;;;;5078373;28;21986;-38
2022/04/30 12:37:43;;;;;;;3.07;1.77;;;14.60;82.00;;;;;;5071802;28;20738;-37
2022/04/30 12:40:11;;;;;;;2.57;1.80;;;14.60;81.80;;;;;;5074671;28;20195;-37
2022/04/30 12:42:40;;;;;;;1.80;1.70;;;14.70;81.80;;;;;;5065319;28;20226;-37
2022/04/30 12:45:07;;;;;;;2.97;1.80;;;14.70;81.60;;;;;;5076348;28;20224;-37
2022/04/30 12:47:35;;;;;;;3.80;1.70;;;14.70;82.10;;;;;;5067261;28;20210;-37
2022/04/30 12:50:02;;;;;;;2.37;2.10;;;;;;;;;;5073157;28;20197;-37
2022/04/30 12:52:28;;;;;;;3.27;1.90;;;14.80;98.70;;;;;;5075623;28;20205;-37
2022/04/30 12:54:57;;;;;;;3.77;1.67;;;14.90;91.50;;;;;;5069835;28;20906;-37
2022/04/30 12:57:24;;;;;;;1.60;1.50;;;14.90;93.90;;;;;;5066204;28;20616;-37
2022/04/30 12:59:53;;;;;;;3.00;1.90;;;15.10;94.80;;;;;;5067713;28;20199;-37
2022/04/30 13:02:22;;;;;;;2.00;1.57;;;15.10;77.90;;;;;;5060116;28;20217;-38
2022/04/30 13:04:51;;;;;;;5.03;2.20;;;15.10;77.70;;;;;;5077094;28;20283;-38
2022/04/30 13:07:18;;;;;;;2.33;1.43;;;15.10;77.50;;;;;;5070162;28;20199;-37
2022/04/30 13:15:16;;;;;;;2.07;1.70;;;15.00;77.90;;;;;;5085599;28;20215;-38
2022/04/30 13:17:43;;;;;;;3.27;2.40;;;15.20;78.10;;;;;;5064520;28;20293;-37
2022/04/30 13:20:11;;;;;;;4.03;2.00;;;15.10;78.50;;;;;;5075866;28;20205;-37
2022/04/30 13:22:38;;;;;;;2.47;1.80;;;15.20;78.20;;;;;;5079161;28;20219;-37
2022/04/30 13:25:06;;;;;;;2.60;1.60;;;15.10;78.70;;;;;;5071159;28;20207;-37
2022/04/30 13:27:36;;;;;;;1.87;1.67;;;15.10;78.50;;;;;;5065403;28;20260;-37
2022/04/30 13:30:03;;;;;;;1.63;1.53;;;15.10;77.70;;;;;;5074799;28;20766;-38
2022/04/30 13:32:34;;;;;;;3.20;1.40;;;15.10;77.00;;;;;;5067567;28;20209;-38
2022/04/30 13:35:00;;;;;;;6.03;1.90;;;15.00;76.90;;;;;;5070782;28;20202;-37
2022/04/30 13:37:27;;;;;;;2.10;1.30;;;14.90;75.90;;;;;;5063806;28;20202;-38
2022/04/30 13:39:54;;;;;;;2.90;1.80;;;15.00;75.60;;;;;;5080240;28;20586;-37
2022/04/30 13:42:20;;;;;;;3.13;2.03;;;15.00;75.70;;;;;;5073434;28;20191;-37
2022/04/30 13:44:49;;;;;;;2.57;1.80;;;15.20;76.70;;;;;;5076000;28;20218;-38
2022/04/30 13:47:15;;;;;;;1.90;1.80;;;15.30;77.40;;;;;;5086056;28;20182;-37
2022/04/30 13:49:44;;;;;;;2.30;1.83;;;15.40;78.40;;;;;;5064949;28;20229;-37